createdAt,value
2022-09-18T00:00:51.168Z,99839.72
2022-09-18T00:03:17.443Z,99843.38
2022-09-18T00:05:43.675Z,99835.56
2022-09-18T00:08:09.864Z,99837.66
2022-09-18T00:10:42.324Z,99834.31
2022-09-18T00:13:09.188Z,99834.84
2022-09-18T00:15:35.410Z,99823.06
2022-09-18T00:18:01.633Z,99834.03
2022-09-18T00:20:27.841Z,99826.47
2022-09-18T00:22:54.038Z,99825.44
2022-09-18T00:25:20.234Z,99827.56
2022-09-18T00:27:46.436Z,99820.47
2022-09-18T00:30:12.662Z,99822.28
2022-09-18T00:32:38.857Z,99829.91
2022-09-18T00:35:05.206Z,99828.31
2022-09-18T00:37:31.401Z,99830.13
2022-09-18T00:39:57.641Z,99835.91
2022-09-18T00:42:23.862Z,99835.13
2022-09-18T00:44:50.070Z,99837.19
2022-09-18T00:47:17.773Z,99844.00
2022-09-18T00:49:55.373Z,99836.94
2022-09-18T00:52:21.860Z,99846.38
2022-09-18T00:54:48.759Z,99847.66
2022-09-18T00:57:16.500Z,99849.75
2022-09-18T00:59:43.063Z,99851.03
2022-09-18T01:02:09.303Z,99849.50
2022-09-18T01:04:35.565Z,99847.66
2022-09-18T01:07:20.471Z,99864.38
2022-09-18T01:09:54.725Z,99873.75
2022-09-18T01:12:33.181Z,99868.53
2022-09-18T01:15:08.966Z,99868.81
2022-09-18T01:17:39.936Z,99870.91
2022-09-18T01:20:06.118Z,99871.69
2022-09-18T01:22:44.858Z,99873.28
2022-09-18T01:25:27.689Z,99875.31
2022-09-18T01:28:12.896Z,99875.09
2022-09-18T01:30:40.890Z,99878.50
2022-09-18T01:33:07.745Z,99882.91
2022-09-18T01:35:41.485Z,99879.78
2022-09-18T01:38:13.231Z,99883.94
2022-09-18T01:40:45.422Z,99890.72
2022-09-18T01:43:12.488Z,99893.06
2022-09-18T01:45:41.038Z,99884.75
2022-09-18T01:48:07.622Z,99887.06
2022-09-18T01:50:38.049Z,99885.25
2022-09-18T01:53:06.309Z,99882.88
2022-09-18T01:55:32.513Z,99887.56
2022-09-18T01:58:00.901Z,99891.22
2022-09-18T02:00:27.102Z,99896.97
2022-09-18T02:02:58.394Z,99893.06
2022-09-18T02:05:26.200Z,99887.03
2022-09-18T02:07:58.509Z,99886.28
2022-09-18T02:10:24.718Z,99885.72
2022-09-18T02:12:50.915Z,99885.47
2022-09-18T02:15:17.161Z,99894.09
2022-09-18T02:17:47.687Z,99881.28
2022-09-18T02:20:21.212Z,99880.53
2022-09-18T02:22:47.570Z,99877.94
2022-09-18T02:25:15.369Z,99868.25
2022-09-18T02:27:41.560Z,99868.53
2022-09-18T02:30:07.941Z,99860.94
2022-09-18T02:32:35.513Z,99854.94
2022-09-18T02:35:01.765Z,99849.19
2022-09-18T02:37:39.342Z,99857.50
2022-09-18T02:40:08.588Z,99864.03
2022-09-18T02:42:46.743Z,99874.75
2022-09-18T02:45:25.046Z,99865.31
2022-09-18T02:47:51.179Z,99876.31
2022-09-18T02:50:26.543Z,99878.91
2022-09-18T02:52:55.133Z,99878.88
2022-09-18T02:55:22.156Z,99881.25
2022-09-18T02:57:49.314Z,99875.78
2022-09-18T03:00:15.512Z,99869.25
2022-09-18T03:02:41.858Z,99876.03
2022-09-18T03:05:08.175Z,99870.84
2022-09-18T03:07:34.389Z,99870.34
2022-09-18T03:10:00.594Z,99857.47
2022-09-18T03:12:26.783Z,99870.03
2022-09-18T03:14:53.108Z,99877.84
2022-09-18T03:17:19.297Z,99872.88
2022-09-18T03:19:45.494Z,99872.38
2022-09-18T03:22:11.802Z,99866.34
2022-09-18T03:24:37.989Z,99867.63
2022-09-18T03:27:04.181Z,99869.44
2022-09-18T03:29:30.373Z,99870.50
2022-09-18T03:31:56.625Z,99869.72
2022-09-18T03:34:22.846Z,99871.84
2022-09-18T03:36:49.044Z,99873.41
2022-09-18T03:39:16.334Z,99865.56
2022-09-18T03:41:42.651Z,99861.63
2022-09-18T03:44:08.846Z,99860.84
2022-09-18T03:46:35.104Z,99857.69
2022-09-18T03:49:01.346Z,99861.34
2022-09-18T03:51:27.540Z,99870.53
2022-09-18T03:53:53.731Z,99866.88
2022-09-18T03:56:19.925Z,99871.59
2022-09-18T03:58:46.130Z,99861.88
2022-09-18T04:01:12.329Z,99859.03
2022-09-18T04:03:38.521Z,99867.66
2022-09-18T04:06:04.810Z,99858.00
2022-09-18T04:08:31.009Z,99857.72
2022-09-18T04:10:57.220Z,99853.59
2022-09-18T04:13:23.409Z,99859.84
2022-09-18T04:15:49.635Z,99859.06
2022-09-18T04:18:18.545Z,99852.28
2022-09-18T04:20:44.808Z,99860.63
2022-09-18T04:23:11.018Z,99861.41
2022-09-18T04:25:37.574Z,99858.31
2022-09-18T04:28:03.784Z,99853.34
2022-09-18T04:30:29.972Z,99845.78
2022-09-18T04:32:56.182Z,99842.34
2022-09-18T04:35:22.368Z,99835.84
2022-09-18T04:37:48.564Z,99851.75
2022-09-18T04:40:14.775Z,99845.47
2022-09-18T04:42:40.995Z,99848.34
2022-09-18T04:45:07.443Z,99848.88
2022-09-18T04:47:33.644Z,99844.94
2022-09-18T04:49:59.835Z,99847.31
2022-09-18T04:52:26.027Z,99852.81
2022-09-18T04:54:52.218Z,99839.97
2022-09-18T04:57:18.416Z,99844.69
2022-09-18T04:59:44.600Z,99841.06
2022-09-18T05:02:10.841Z,99836.06
2022-09-18T05:04:37.052Z,99837.63
2022-09-18T05:07:03.245Z,99832.69
2022-09-18T05:09:29.441Z,99847.53
2022-09-18T05:11:55.647Z,99842.06
2022-09-18T05:14:21.842Z,99851.22
2022-09-18T05:16:48.054Z,99856.13
2022-09-18T05:19:14.231Z,99853.81
2022-09-18T05:21:40.430Z,99854.09
2022-09-18T05:24:06.626Z,99864.00
2022-09-18T05:26:32.829Z,99853.59
2022-09-18T05:28:59.027Z,99855.94
2022-09-18T05:31:25.283Z,99848.13
2022-09-18T05:33:51.626Z,99841.59
2022-09-18T05:36:17.829Z,99846.03
2022-09-18T05:38:44.027Z,99850.72
2022-09-18T05:41:10.225Z,99852.56
2022-09-18T05:43:36.429Z,99855.69
2022-09-18T05:46:02.619Z,99861.16
2022-09-18T05:48:28.823Z,99868.97
2022-09-18T05:50:55.985Z,99873.69
2022-09-18T05:53:22.197Z,99876.28
2022-09-18T05:55:48.398Z,99864.03
2022-09-18T05:58:15.269Z,99872.16
2022-09-18T06:00:41.466Z,99865.13
2022-09-18T06:03:09.460Z,99873.97
2022-09-18T06:05:35.995Z,99867.44
2022-09-18T06:08:02.311Z,99872.94
2022-09-18T06:10:28.707Z,99881.28
2022-09-18T06:13:21.362Z,99867.72
2022-09-18T06:15:48.274Z,99860.66
2022-09-18T06:18:14.487Z,99865.13
2022-09-18T06:20:41.185Z,99865.38
2022-09-18T06:23:07.394Z,99860.94
2022-09-18T06:25:33.581Z,99862.25
2022-09-18T06:27:59.852Z,99868.50
2022-09-18T06:30:26.891Z,99863.84
2022-09-18T06:32:53.125Z,99868.81
2022-09-18T06:35:19.371Z,99863.84
2022-09-18T06:37:45.617Z,99845.59
2022-09-18T06:40:11.915Z,99868.00
2022-09-18T06:42:40.708Z,99844.63
2022-09-18T06:45:10.172Z,99813.44
2022-09-18T06:47:36.374Z,99788.75
2022-09-18T06:50:02.696Z,99754.09
2022-09-18T06:52:28.910Z,99737.31
2022-09-18T06:54:55.122Z,99689.91
2022-09-18T06:57:21.321Z,99637.56
2022-09-18T06:59:47.508Z,99600.44
2022-09-18T07:02:18.626Z,99607.44
2022-09-18T07:04:45.714Z,99588.81
2022-09-18T07:07:11.914Z,99574.94
2022-09-18T07:09:38.106Z,99630.09
2022-09-18T07:12:04.345Z,99694.69
2022-09-18T07:14:30.540Z,99698.19
2022-09-18T07:16:56.756Z,99727.59
2022-09-18T07:19:22.940Z,99713.25
2022-09-18T07:21:49.148Z,99711.94
2022-09-18T07:24:15.332Z,99730.75
2022-09-18T07:26:41.578Z,99771.59
2022-09-18T07:29:10.096Z,99818.94
2022-09-18T07:31:36.656Z,99821.59
2022-09-18T07:34:02.905Z,99840.84
2022-09-18T07:36:29.104Z,99860.78
2022-09-18T07:38:55.284Z,99898.63
2022-09-18T07:41:21.476Z,99824.84
2022-09-18T07:43:50.497Z,99867.97
2022-09-18T07:46:16.872Z,99838.38
2022-09-18T07:48:43.093Z,99794.81
2022-09-18T07:51:09.286Z,99790.97
2022-09-18T07:53:35.476Z,99772.38
2022-09-18T07:56:01.726Z,99756.13
2022-09-18T07:58:27.930Z,99720.91
2022-09-18T08:00:54.138Z,99689.25
2022-09-18T08:03:20.327Z,99681.81
2022-09-18T08:05:46.523Z,99694.75
2022-09-18T08:08:13.374Z,99624.84
2022-09-18T08:10:40.053Z,99572.44
2022-09-18T08:13:06.332Z,99566.88
2022-09-18T08:15:32.866Z,99533.09
2022-09-18T08:17:59.052Z,99520.16
2022-09-18T08:20:25.242Z,99533.94
2022-09-18T08:22:51.484Z,99399.56
2022-09-18T08:25:17.677Z,99408.44
2022-09-18T08:27:43.929Z,99429.25
2022-09-18T08:30:10.851Z,99380.38
2022-09-18T08:32:37.070Z,99347.41
2022-09-18T08:35:03.377Z,99306.09
2022-09-18T08:37:29.686Z,99419.38
2022-09-18T08:39:55.943Z,99351.47
2022-09-18T08:42:40.891Z,99367.25
2022-09-18T08:45:12.838Z,99489.59
2022-09-18T08:47:40.254Z,99431.19
2022-09-18T08:50:11.513Z,99438.66
2022-09-18T08:52:38.876Z,99401.22
2022-09-18T08:55:06.458Z,99333.69
2022-09-18T08:57:39.520Z,99344.53
2022-09-18T09:00:06.906Z,99340.53
2022-09-18T09:02:39.952Z,99267.66
2022-09-18T09:05:07.201Z,99462.66
2022-09-18T09:07:37.991Z,99468.28
2022-09-18T09:10:12.049Z,99502.53
2022-09-18T09:12:50.445Z,99431.88
2022-09-18T09:15:22.002Z,99384.97
2022-09-18T09:18:08.997Z,99406.28
2022-09-18T09:20:41.977Z,99438.38
2022-09-18T09:23:18.578Z,99439.81
2022-09-18T09:26:08.049Z,99558.03
2022-09-18T09:28:38.726Z,99502.09
2022-09-18T09:31:06.059Z,99460.88
2022-09-18T09:33:52.573Z,99409.00
2022-09-18T09:36:20.417Z,99390.19
2022-09-18T09:38:48.383Z,99317.34
2022-09-18T09:41:19.741Z,99444.94
2022-09-18T09:43:52.376Z,99417.47
2022-09-18T09:46:22.398Z,99458.81
2022-09-18T09:49:09.700Z,99510.22
2022-09-18T09:51:54.641Z,99501.22
2022-09-18T09:54:20.837Z,99504.81
2022-09-18T09:56:54.610Z,99438.34
2022-09-18T09:59:26.333Z,99449.72
2022-09-18T10:01:52.556Z,99432.31
2022-09-18T10:04:26.079Z,99487.09
2022-09-18T10:07:01.477Z,99346.25
2022-09-18T10:09:36.778Z,99247.72
2022-09-18T10:12:21.425Z,99368.81
2022-09-18T10:14:47.708Z,99526.97
2022-09-18T10:17:13.912Z,99618.75
2022-09-18T10:19:40.882Z,99429.31
2022-09-18T10:22:07.560Z,99366.84
2022-09-18T10:24:48.370Z,99476.97
2022-09-18T10:27:14.770Z,99451.94
2022-09-18T10:29:41.030Z,99465.28
2022-09-18T10:32:07.320Z,99512.03
2022-09-18T10:34:40.922Z,99543.50
2022-09-18T10:37:13.247Z,99632.47
2022-09-18T10:39:47.121Z,99459.78
2022-09-18T10:42:14.564Z,99507.19
2022-09-18T10:44:40.888Z,99511.31
2022-09-18T10:47:30.489Z,99467.88
2022-09-18T10:50:05.721Z,99377.91
2022-09-18T10:52:38.550Z,99279.38
2022-09-18T10:55:04.688Z,99421.78
2022-09-18T10:57:31.664Z,99501.69
2022-09-18T10:59:57.866Z,99507.41
2022-09-18T11:02:24.744Z,99500.00
2022-09-18T11:04:50.968Z,99482.66
2022-09-18T11:07:17.230Z,99604.50
2022-09-18T11:09:43.421Z,99642.94
2022-09-18T11:12:19.739Z,99625.00
2022-09-18T11:14:47.278Z,99706.28
2022-09-18T11:17:29.987Z,99710.28
2022-09-18T11:19:56.649Z,99825.09
2022-09-18T11:22:30.780Z,99900.97
2022-09-18T11:25:20.319Z,99892.81
2022-09-18T11:27:50.112Z,99890.25
2022-09-18T11:30:20.358Z,99734.97
2022-09-18T11:32:46.563Z,99792.75
2022-09-18T11:35:13.558Z,99573.34
2022-09-18T11:37:44.975Z,99479.09
2022-09-18T11:40:18.844Z,99455.00
2022-09-18T11:42:45.467Z,99531.75
2022-09-18T11:45:30.598Z,99456.06
2022-09-18T11:48:12.627Z,99486.50
2022-09-18T11:50:38.822Z,99310.59
2022-09-18T11:53:15.147Z,99272.81
2022-09-18T11:55:45.354Z,99301.41
2022-09-18T11:58:12.758Z,99249.66
2022-09-18T12:00:49.480Z,99315.66
2022-09-18T12:03:15.796Z,99258.72
2022-09-18T12:05:52.814Z,99257.59
2022-09-18T12:08:29.941Z,99230.94
2022-09-18T12:11:12.685Z,99293.06
2022-09-18T12:13:57.599Z,99407.94
2022-09-18T12:16:31.065Z,99417.78
2022-09-18T12:19:02.901Z,99300.56
2022-09-18T12:21:43.914Z,99355.44
2022-09-18T12:24:13.694Z,99306.22
2022-09-18T12:26:54.618Z,99306.16
2022-09-18T12:29:32.924Z,99281.09
2022-09-18T12:32:19.117Z,99118.34
2022-09-18T12:34:54.686Z,99259.53
2022-09-18T12:37:29.961Z,99257.44
2022-09-18T12:39:56.867Z,99236.34
2022-09-18T12:42:23.041Z,99230.97
2022-09-18T12:44:49.176Z,99224.91
2022-09-18T12:47:30.409Z,99380.44
2022-09-18T12:50:11.593Z,99324.31
2022-09-18T12:53:00.246Z,99455.41
2022-09-18T12:55:46.684Z,99481.94
2022-09-18T12:58:12.837Z,99462.81
2022-09-18T13:00:39.075Z,99437.06
2022-09-18T13:03:11.274Z,99511.00
2022-09-18T13:05:43.662Z,99625.19
2022-09-18T13:08:20.429Z,99716.16
2022-09-18T13:10:46.918Z,99746.81
2022-09-18T13:13:17.759Z,99779.41
2022-09-18T13:15:45.998Z,99806.03
2022-09-18T13:18:31.780Z,99865.44
2022-09-18T13:20:58.374Z,99855.31
2022-09-18T13:23:25.861Z,99867.75
2022-09-18T13:25:52.052Z,99819.56
2022-09-18T13:28:18.861Z,99719.41
2022-09-18T13:30:45.048Z,99724.63
2022-09-18T13:33:37.666Z,99717.50
2022-09-18T13:36:03.909Z,99740.75
2022-09-18T13:38:30.112Z,99700.34
2022-09-18T13:41:00.279Z,99694.06
2022-09-18T13:43:29.742Z,99743.47
2022-09-18T13:45:55.986Z,99721.25
2022-09-18T13:48:40.479Z,99650.56
2022-09-18T13:51:10.588Z,99622.69
2022-09-18T13:53:36.739Z,99720.16
2022-09-18T13:56:03.324Z,99809.25
2022-09-18T13:58:32.343Z,99841.84
2022-09-18T14:00:59.008Z,99940.00
2022-09-18T14:03:27.818Z,99929.56
2022-09-18T14:05:54.237Z,99937.03
2022-09-18T14:08:20.392Z,99970.09
2022-09-18T14:10:59.853Z,99951.25
2022-09-18T14:13:42.424Z,100040.34
2022-09-18T14:16:08.623Z,100126.09
2022-09-18T14:18:39.753Z,100194.75
2022-09-18T14:21:18.222Z,100252.88
2022-09-18T14:23:44.369Z,100302.84
2022-09-18T14:26:28.666Z,100290.25
2022-09-18T14:28:55.305Z,100269.09
2022-09-18T14:31:28.481Z,100271.44
2022-09-18T14:33:55.733Z,100264.88
2022-09-18T14:36:21.923Z,100254.13
2022-09-18T14:38:48.168Z,100255.47
2022-09-18T14:41:18.461Z,100243.97
2022-09-18T14:43:51.201Z,100240.78
2022-09-18T14:46:17.955Z,100236.56
2022-09-18T14:48:44.152Z,100228.56
2022-09-18T14:51:17.964Z,100190.03
2022-09-18T14:53:44.835Z,100137.03
2022-09-18T14:56:12.699Z,100101.13
2022-09-18T14:58:39.454Z,99972.56
2022-09-18T15:01:06.157Z,99869.88
2022-09-18T15:03:39.541Z,99808.56
2022-09-18T15:06:12.411Z,99693.78
2022-09-18T15:08:38.615Z,99654.69
2022-09-18T15:11:04.879Z,99657.22
2022-09-18T15:13:31.684Z,99662.59
2022-09-18T15:15:58.750Z,99626.44
2022-09-18T15:18:25.671Z,99572.63
2022-09-18T15:20:52.240Z,99577.13
2022-09-18T15:23:19.076Z,99590.94
2022-09-18T15:25:45.289Z,99608.78
2022-09-18T15:28:11.493Z,99668.78
2022-09-18T15:30:39.420Z,99700.16
2022-09-18T15:33:06.711Z,99650.09
2022-09-18T15:35:36.438Z,99641.47
2022-09-18T15:38:03.802Z,99615.13
2022-09-18T15:40:31.167Z,99639.34
2022-09-18T15:43:04.593Z,99691.84
2022-09-18T15:45:31.463Z,99730.94
2022-09-18T15:47:58.196Z,99781.47
2022-09-18T15:50:37.302Z,99830.78
2022-09-18T15:53:04.997Z,99862.34
2022-09-18T15:55:31.933Z,99953.94
2022-09-18T15:57:58.771Z,100007.78
2022-09-18T16:00:27.670Z,100024.53
2022-09-18T16:02:54.413Z,100048.28
2022-09-18T16:05:20.760Z,100045.41
2022-09-18T16:07:54.175Z,100062.09
2022-09-18T16:10:35.509Z,100077.25
2022-09-18T16:13:02.044Z,100073.03
2022-09-18T16:15:28.245Z,100082.69
2022-09-18T16:17:54.410Z,100095.47
2022-09-18T16:20:39.416Z,100075.88
2022-09-18T16:23:11.516Z,100099.91
2022-09-18T16:25:37.720Z,100092.59
2022-09-18T16:28:14.447Z,100092.59
2022-09-18T16:30:40.641Z,100104.38
2022-09-18T16:33:15.782Z,100101.25
2022-09-18T16:35:41.986Z,100097.13
2022-09-18T16:38:08.650Z,100079.59
2022-09-18T16:40:34.855Z,100066.53
2022-09-18T16:43:01.118Z,100057.91
2022-09-18T16:45:27.313Z,100052.72
2022-09-18T16:47:53.819Z,100030.50
2022-09-18T16:50:21.073Z,100022.66
2022-09-18T16:52:47.280Z,100017.69
2022-09-18T16:55:13.460Z,100006.75
2022-09-18T16:57:39.715Z,99998.91
2022-09-18T17:00:06.249Z,99980.59
2022-09-18T17:02:32.547Z,99977.47
2022-09-18T17:04:58.752Z,99986.34
2022-09-18T17:07:24.958Z,99986.88
2022-09-18T17:09:51.143Z,99989.19
2022-09-18T17:12:17.347Z,100005.13
2022-09-18T17:14:43.531Z,100008.56
2022-09-18T17:17:09.769Z,99992.59
2022-09-18T17:19:35.998Z,99995.75
2022-09-18T17:22:02.207Z,100001.69
2022-09-18T17:24:28.400Z,100011.34
2022-09-18T17:26:54.610Z,100008.47
2022-09-18T17:29:20.809Z,100017.09
2022-09-18T17:31:47.077Z,100018.66
2022-09-18T17:34:13.285Z,100017.06
2022-09-18T17:36:39.494Z,100019.16
2022-09-18T17:39:05.788Z,100020.47
2022-09-18T17:41:32.436Z,100023.56
2022-09-18T17:43:58.636Z,100017.59
2022-09-18T17:46:24.851Z,100013.41
2022-09-18T17:48:54.526Z,100011.88
2022-09-18T17:51:20.721Z,100005.84
2022-09-18T17:53:47.474Z,100003.50
2022-09-18T17:56:14.645Z,99997.47
2022-09-18T17:58:40.852Z,100005.31
2022-09-18T18:01:10.774Z,99993.81
2022-09-18T18:03:37.113Z,99996.13
2022-09-18T18:06:03.349Z,100015.44
2022-09-18T18:08:29.586Z,100021.97
2022-09-18T18:10:55.998Z,100025.63
2022-09-18T18:13:22.253Z,100036.88
2022-09-18T18:15:48.450Z,100040.88
2022-09-18T18:18:14.644Z,100034.28
2022-09-18T18:20:40.844Z,100033.03
2022-09-18T18:23:07.053Z,100018.16
2022-09-18T18:25:36.237Z,100009.31
2022-09-18T18:28:02.530Z,99973.69
2022-09-18T18:30:28.708Z,99992.22
2022-09-18T18:32:54.918Z,100010.41
2022-09-18T18:35:21.103Z,100044.13
2022-09-18T18:37:47.310Z,100048.31
2022-09-18T18:40:13.556Z,100055.94
2022-09-18T18:42:39.768Z,100043.66
2022-09-18T18:45:06.205Z,100044.72
2022-09-18T18:47:32.400Z,100036.69
2022-09-18T18:49:58.589Z,100022.31
2022-09-18T18:52:24.793Z,100032.47
2022-09-18T18:54:50.993Z,100039.03
2022-09-18T18:57:17.188Z,100050.47
2022-09-18T18:59:43.382Z,100071.88
2022-09-18T19:02:09.716Z,100066.13
2022-09-18T19:04:36.026Z,100070.84
2022-09-18T19:07:02.236Z,100067.63
2022-09-18T19:09:28.438Z,100077.06
2022-09-18T19:11:54.668Z,100086.19
2022-09-18T19:14:25.510Z,100085.41
2022-09-18T19:16:52.283Z,100086.94
2022-09-18T19:19:19.214Z,100083.53
2022-09-18T19:21:45.412Z,100088.69
2022-09-18T19:24:11.668Z,100106.69
2022-09-18T19:26:38.254Z,100112.69
2022-09-18T19:29:05.191Z,100109.63
2022-09-18T19:31:32.544Z,100105.44
2022-09-18T19:33:58.768Z,100097.94
2022-09-18T19:36:26.567Z,100084.09
2022-09-18T19:38:56.603Z,100076.78
2022-09-18T19:41:29.385Z,100074.72
2022-09-18T19:43:55.570Z,100058.53
2022-09-18T19:46:23.227Z,100057.50
2022-09-18T19:48:49.465Z,100042.63
2022-09-18T19:51:15.665Z,100042.38
2022-09-18T19:53:41.868Z,100034.25
2022-09-18T19:56:18.466Z,100031.16
2022-09-18T19:58:53.985Z,100026.19
2022-09-18T20:01:20.182Z,100020.19
2022-09-18T20:03:46.379Z,100015.75
2022-09-18T20:06:12.568Z,100019.41
2022-09-18T20:08:38.793Z,100009.22
2022-09-18T20:11:04.986Z,100006.63
2022-09-18T20:13:31.197Z,100011.53
2022-09-18T20:16:07.189Z,100008.41
2022-09-18T20:18:33.461Z,100022.00
2022-09-18T20:21:09.725Z,100023.31
2022-09-18T20:23:35.934Z,100016.03
2022-09-18T20:26:05.788Z,100012.16
2022-09-18T20:28:32.002Z,100011.09
2022-09-18T20:31:00.891Z,100013.69
2022-09-18T20:33:27.099Z,100021.28
2022-09-18T20:35:53.848Z,100032.44
2022-09-18T20:38:20.057Z,100031.34
2022-09-18T20:40:46.249Z,100025.63
2022-09-18T20:43:12.460Z,100012.63
2022-09-18T20:45:38.666Z,100012.41
2022-09-18T20:48:04.860Z,99995.19
2022-09-18T20:50:31.048Z,99986.81
2022-09-18T20:52:57.253Z,99979.78
2022-09-18T20:55:23.442Z,99979.78
2022-09-18T20:57:49.645Z,99973.22
2022-09-18T21:00:15.903Z,99963.31
2022-09-18T21:02:42.151Z,99972.44
2022-09-18T21:05:09.137Z,99968.81
2022-09-18T21:07:35.345Z,99981.84
2022-09-18T21:10:01.535Z,99985.47
2022-09-18T21:12:27.801Z,99993.28
2022-09-18T21:14:53.994Z,100006.03
2022-09-18T21:17:20.207Z,100018.56
2022-09-18T21:19:49.855Z,100021.19
2022-09-18T21:22:16.629Z,100023.25
2022-09-18T21:24:42.817Z,100027.50
2022-09-18T21:27:09.020Z,100026.97
2022-09-18T21:29:35.203Z,100031.91
2022-09-18T21:32:01.453Z,100025.69
2022-09-18T21:34:28.264Z,100025.69
2022-09-18T21:36:55.087Z,100028.78
2022-09-18T21:39:21.699Z,100028.03
2022-09-18T21:41:47.897Z,100023.06
2022-09-18T21:44:17.400Z,100024.59
2022-09-18T21:46:43.662Z,100015.78
2022-09-18T21:49:09.884Z,100013.44
2022-09-18T21:51:36.427Z,100016.03
2022-09-18T21:54:02.725Z,100020.47
2022-09-18T21:56:28.929Z,100021.25
2022-09-18T21:58:55.129Z,100019.66
2022-09-18T22:01:22.245Z,100031.22
2022-09-18T22:03:49.274Z,100023.09
2022-09-18T22:06:15.461Z,100027.28
2022-09-18T22:08:41.682Z,100029.38
2022-09-18T22:11:07.885Z,100018.16
2022-09-18T22:13:34.086Z,100025.97
2022-09-18T22:16:00.314Z,100015.53
2022-09-18T22:18:26.690Z,100021.00
2022-09-18T22:20:53.209Z,100022.31
2022-09-18T22:23:19.404Z,100018.66
2022-09-18T22:25:45.605Z,100019.97
2022-09-18T22:28:11.821Z,100022.06
2022-09-18T22:30:38.013Z,100017.63
2022-09-18T22:33:04.380Z,100023.88
2022-09-18T22:35:30.574Z,100029.84
2022-09-18T22:37:56.781Z,100041.84
2022-09-18T22:40:23.031Z,100045.00
2022-09-18T22:42:49.274Z,100062.97
2022-09-18T22:45:15.478Z,100077.09
2022-09-18T22:47:41.685Z,100093.50
2022-09-18T22:50:07.997Z,100105.19
2022-09-18T22:52:34.377Z,100107.06
2022-09-18T22:55:00.574Z,100115.97
2022-09-18T22:57:26.818Z,100120.16
2022-09-18T22:59:53.010Z,100118.56
2022-09-18T23:02:19.245Z,100115.44
2022-09-18T23:04:45.550Z,100115.19
2022-09-18T23:07:11.877Z,100106.59
2022-09-18T23:09:38.083Z,100093.00
2022-09-18T23:12:04.344Z,100085.97
2022-09-18T23:14:30.555Z,100073.16
2022-09-18T23:16:56.956Z,100070.81
2022-09-18T23:19:24.584Z,100070.06
2022-09-18T23:21:50.785Z,100073.16
2022-09-18T23:24:17.153Z,100066.38
2022-09-18T23:26:44.252Z,100065.88
2022-09-18T23:29:11.390Z,100066.66
2022-09-18T23:31:38.335Z,100066.13
2022-09-18T23:34:08.279Z,100064.72
2022-09-18T23:36:35.328Z,100067.81
2022-09-18T23:39:02.621Z,100093.66
2022-09-18T23:41:28.913Z,100104.63
2022-09-18T23:43:55.116Z,100123.22
2022-09-18T23:46:21.574Z,100131.84
2022-09-18T23:48:47.891Z,100131.63
2022-09-18T23:51:14.093Z,100133.19
2022-09-18T23:53:40.517Z,100122.75
2022-09-18T23:56:07.647Z,100125.13
2022-09-18T23:58:33.852Z,100126.94
